Time;durP1;ratioP1;P1;durP2;ratioP2;P2;SDS_P1;SDS_P2;PMS_P1;PMS_P2;Temp;Humidity;BMP_temperature;BMP_pressure;BME280_temperature;BME280_humidity;BME280_pressure;Samples;Min_cycle;Max_cycle;Signal;HPM_P1;HPM_P2
2023/07/08 00:00:09;;;;;;;9.98;4.70;;;19.50;85.20;;;;;;4993963;28;20076;-79
2023/07/08 00:02:35;;;;;;;8.95;4.70;;;19.50;84.90;;;;;;4992396;28;20034;-79
2023/07/08 00:05:00;;;;;;;7.80;4.43;;;19.50;85.20;;;;;;4993382;28;20034;-79
2023/07/08 00:07:26;;;;;;;11.70;5.55;;;19.50;84.40;;;;;;4993553;28;20050;-79
2023/07/08 00:09:52;;;;;;;8.57;4.43;;;19.60;84.00;;;;;;4993854;28;20045;-79
2023/07/08 00:12:17;;;;;;;9.00;4.85;;;19.60;84.30;;;;;;4995594;28;20474;-79
2023/07/08 00:14:43;;;;;;;12.60;4.80;;;19.60;83.90;;;;;;5001223;23;20399;-84
2023/07/08 00:17:12;;;;;;;9.57;5.18;;;19.60;84.10;;;;;;4960398;28;20115;-85
2023/07/08 00:19:38;;;;;;;10.57;5.03;;;19.60;83.90;;;;;;4974330;28;20066;-86
2023/07/08 00:22:14;;;;;;;10.52;5.10;;;19.60;83.20;;;;;;4956557;28;20057;-87
2023/07/08 00:24:42;;;;;;;9.40;4.88;;;19.50;83.80;;;;;;4974027;28;20015;-85
2023/07/08 00:27:13;;;;;;;12.63;4.90;;;19.50;83.30;;;;;;4973969;28;20403;-85
2023/07/08 00:29:38;;;;;;;9.98;5.53;;;19.60;83.40;;;;;;4967760;28;20023;-85
2023/07/08 00:32:13;;;;;;;8.40;4.38;;;19.60;83.20;;;;;;4962810;28;20037;-84
2023/07/08 00:34:39;;;;;;;11.77;4.60;;;19.60;83.90;;;;;;4973575;28;20026;-85
2023/07/08 00:37:05;;;;;;;10.88;5.10;;;19.60;82.70;;;;;;4956775;28;20090;-86
2023/07/08 00:39:34;;;;;;;9.60;4.57;;;19.60;82.40;;;;;;4956288;28;20175;-86
2023/07/08 00:42:12;;;;;;;10.13;4.18;;;19.50;82.10;;;;;;4974424;28;20501;-85
2023/07/08 00:44:38;;;;;;;7.53;5.25;;;19.70;82.10;;;;;;4973393;28;20014;-86
2023/07/08 00:47:11;;;;;;;10.25;5.07;;;19.70;80.90;;;;;;4973703;28;20034;-85
2023/07/08 00:49:45;;;;;;;11.70;5.05;;;19.80;79.90;;;;;;4967104;28;20387;-85
2023/07/08 00:52:26;;;;;;;9.10;5.13;;;19.80;79.50;;;;;;4955998;28;20110;-85
2023/07/08 00:55:07;;;;;;;7.03;4.53;;;19.70;80.10;;;;;;4956353;28;20557;-85
2023/07/08 00:57:38;;;;;;;8.63;5.25;;;19.70;80.60;;;;;;4973567;28;20027;-86
2023/07/08 01:00:10;;;;;;;10.52;4.85;;;19.70;81.30;;;;;;4972855;28;20022;-85
2023/07/08 01:02:48;;;;;;;12.50;5.18;;;19.60;80.80;;;;;;4956442;28;20434;-85
2023/07/08 01:05:18;;;;;;;8.45;5.03;;;19.60;79.90;;;;;;4951283;28;20379;-85
2023/07/08 01:07:50;;;;;;;14.65;6.22;;;19.60;79.80;;;;;;4956084;28;20514;-86
2023/07/08 01:10:20;;;;;;;10.52;5.32;;;19.60;80.10;;;;;;4973252;28;20011;-85
2023/07/08 01:12:51;;;;;;;9.83;5.27;;;19.50;81.20;;;;;;4973405;28;20379;-85
2023/07/08 01:15:17;;;;;;;17.38;6.00;;;19.40;80.80;;;;;;4991297;23;20054;-79
2023/07/08 01:17:45;;;;;;;12.93;5.10;;;19.40;81.80;;;;;;4972580;28;20038;-79
2023/07/08 01:20:13;;;;;;;9.07;5.10;;;19.30;83.00;;;;;;4972717;28;20121;-79
2023/07/08 01:22:40;;;;;;;9.55;4.50;;;19.30;82.10;;;;;;4972183;28;20427;-80
2023/07/08 01:25:07;;;;;;;6.50;4.63;;;19.30;83.20;;;;;;4972703;28;20015;-79
2023/07/08 01:27:36;;;;;;;11.70;4.80;;;19.30;84.80;;;;;;4972878;28;20034;-79
2023/07/08 01:30:03;;;;;;;7.78;5.00;;;19.20;83.60;;;;;;4972842;28;20023;-79
2023/07/08 01:32:30;;;;;;;10.48;4.90;;;19.10;84.30;;;;;;4972115;28;20073;-79
2023/07/08 01:35:00;;;;;;;8.48;5.05;;;19.10;84.10;;;;;;4972827;28;20027;-79
2023/07/08 01:37:35;;;;;;;7.97;4.78;;;19.00;84.40;;;;;;4972610;28;20027;-79
2023/07/08 01:40:37;;;;;;;7.70;4.78;;;19.10;83.70;;;;;;4972473;28;20046;-79
2023/07/08 01:43:04;;;;;;;8.30;4.28;;;19.20;83.70;;;;;;4931889;29;20019;-79
2023/07/08 01:45:37;;;;;;;14.15;4.90;;;19.20;84.50;;;;;;4964675;28;20038;-79
2023/07/08 01:48:08;;;;;;;9.88;4.97;;;19.20;84.10;;;;;;4972199;28;20045;-79
2023/07/08 01:50:40;;;;;;;8.48;5.38;;;19.20;83.30;;;;;;4966579;28;20023;-79
2023/07/08 01:53:28;;;;;;;9.13;5.13;;;19.40;82.90;;;;;;4972346;28;20032;-78
2023/07/08 01:55:53;;;;;;;9.60;4.70;;;19.40;82.90;;;;;;4972301;28;20030;-79
2023/07/08 01:58:19;;;;;;;9.95;4.78;;;19.30;83.30;;;;;;4971996;28;20027;-79
2023/07/08 02:00:48;;;;;;;7.68;4.97;;;19.30;83.90;;;;;;4972408;28;20023;-79
2023/07/08 02:03:14;;;;;;;16.42;5.15;;;19.30;83.70;;;;;;4972335;28;20192;-78
2023/07/08 02:05:39;;;;;;;8.02;5.28;;;19.20;84.30;;;;;;4972331;28;20110;-79
2023/07/08 02:08:05;;;;;;;12.23;5.47;;;19.10;85.00;;;;;;4972317;28;20130;-79
2023/07/08 02:10:31;;;;;;;10.90;5.10;;;19.00;85.40;;;;;;4972369;28;20015;-79
2023/07/08 02:12:56;;;;;;;7.65;5.03;;;19.00;86.50;;;;;;4972407;28;20517;-79
2023/07/08 02:15:22;;;;;;;14.48;4.85;;;18.90;87.70;;;;;;4989585;23;20494;-85
2023/07/08 02:17:49;;;;;;;11.38;5.63;;;18.80;88.00;;;;;;4972226;28;20554;-86
2023/07/08 02:20:15;;;;;;;7.88;4.40;;;18.80;88.00;;;;;;4972039;28;20395;-85
2023/07/08 02:22:41;;;;;;;7.85;4.90;;;18.70;88.00;;;;;;4971979;28;20026;-85
2023/07/08 02:25:09;;;;;;;9.93;5.22;;;18.70;88.30;;;;;;4972224;28;20019;-84
2023/07/08 02:27:35;;;;;;;12.40;4.60;;;18.60;89.30;;;;;;4972673;28;20043;-85
2023/07/08 02:30:00;;;;;;;9.00;5.32;;;18.50;89.70;;;;;;4972114;28;20479;-84
2023/07/08 02:32:26;;;;;;;10.98;5.00;;;18.50;90.00;;;;;;4955185;28;20023;-86
2023/07/08 02:34:52;;;;;;;7.05;4.93;;;18.50;90.30;;;;;;4954409;28;20444;-85
2023/07/08 02:37:18;;;;;;;8.15;4.90;;;18.30;90.60;;;;;;4972142;28;20117;-85
2023/07/08 02:39:43;;;;;;;13.65;5.68;;;18.30;91.00;;;;;;4972114;28;20419;-85
2023/07/08 02:42:09;;;;;;;8.30;4.40;;;18.20;91.20;;;;;;4971281;28;20029;-85
2023/07/08 02:44:35;;;;;;;10.65;5.10;;;18.10;91.30;;;;;;4973732;28;20383;-85
2023/07/08 02:47:01;;;;;;;7.68;4.72;;;18.00;91.70;;;;;;4958210;28;20093;-86
2023/07/08 02:49:27;;;;;;;8.43;5.45;;;17.90;92.10;;;;;;4975116;28;20443;-85
2023/07/08 02:51:52;;;;;;;11.38;4.93;;;17.90;92.40;;;;;;4975526;28;20438;-85
2023/07/08 02:54:18;;;;;;;9.82;5.82;;;17.80;92.40;;;;;;4975599;28;20026;-85
2023/07/08 02:56:43;;;;;;;11.18;5.80;;;17.80;92.40;;;;;;4975808;28;20097;-85
2023/07/08 02:59:09;;;;;;;10.27;5.68;;;17.70;92.80;;;;;;4975363;28;20530;-85
2023/07/08 03:01:41;;;;;;;7.25;5.07;;;17.70;92.90;;;;;;4975974;28;20050;-84
2023/07/08 03:04:13;;;;;;;7.30;5.05;;;17.60;92.80;;;;;;4975301;28;20027;-84
2023/07/08 03:06:43;;;;;;;10.57;5.10;;;17.60;93.30;;;;;;4975355;28;20085;-83
2023/07/08 03:09:11;;;;;;;8.65;5.20;;;17.50;93.10;;;;;;4974457;28;20072;-84
2023/07/08 03:11:37;;;;;;;8.13;5.40;;;17.50;93.40;;;;;;4970816;28;20019;-85
2023/07/08 03:14:03;;;;;;;10.77;5.55;;;17.50;93.40;;;;;;4972433;23;20081;-79
2023/07/08 03:16:29;;;;;;;10.95;5.20;;;17.50;93.70;;;;;;4975138;28;20039;-78
2023/07/08 03:18:54;;;;;;;11.13;5.55;;;17.50;93.80;;;;;;4979951;28;20471;-79
2023/07/08 03:21:21;;;;;;;7.43;5.20;;;17.50;93.80;;;;;;4975073;28;20022;-78
2023/07/08 03:23:48;;;;;;;8.50;5.53;;;17.60;93.70;;;;;;4975549;28;20066;-79
2023/07/08 03:26:20;;;;;;;11.00;5.47;;;17.50;93.70;;;;;;4975054;28;20391;-79
2023/07/08 03:28:46;;;;;;;9.35;5.25;;;17.50;94.10;;;;;;4968989;28;20077;-79
2023/07/08 03:31:12;;;;;;;8.35;5.40;;;17.50;93.90;;;;;;4974092;28;20033;-78
2023/07/08 03:33:38;;;;;;;9.40;5.03;;;17.40;94.20;;;;;;4974505;28;20023;-79
2023/07/08 03:36:10;;;;;;;13.55;5.47;;;17.40;94.20;;;;;;4975198;28;20038;-79
2023/07/08 03:38:35;;;;;;;;;;;17.40;94.60;;;;;;4974833;28;20135;-78
2023/07/08 03:41:01;;;;;;;10.40;5.35;;;17.30;94.70;;;;;;4974732;28;19906;-79
2023/07/08 03:43:26;;;;;;;11.23;5.25;;;17.30;94.60;;;;;;4974907;28;20019;-79
2023/07/08 03:45:53;;;;;;;9.48;5.25;;;17.30;94.70;;;;;;4974482;28;20035;-79
2023/07/08 03:48:18;;;;;;;7.72;4.55;;;17.30;94.60;;;;;;4974448;28;20192;-80
2023/07/08 03:50:44;;;;;;;9.50;5.25;;;17.30;95.00;;;;;;4974507;28;20106;-79
2023/07/08 03:53:10;;;;;;;13.38;5.45;;;17.30;94.80;;;;;;4974772;28;20023;-79
2023/07/08 03:55:35;;;;;;;7.57;5.00;;;17.30;95.00;;;;;;4974045;28;20034;-79
2023/07/08 03:58:01;;;;;;;8.18;4.47;;;17.30;95.00;;;;;;4974569;28;20027;-79
2023/07/08 04:00:27;;;;;;;12.25;5.90;;;17.40;94.90;;;;;;4967838;28;20047;-79
2023/07/08 04:02:52;;;;;;;11.38;4.80;;;17.50;94.70;;;;;;4974392;28;20613;-79
2023/07/08 04:05:22;;;;;;;12.50;5.10;;;17.50;95.00;;;;;;4973949;28;20023;-79
2023/07/08 04:07:48;;;;;;;6.85;4.50;;;17.50;94.90;;;;;;4974655;28;20034;-79
2023/07/08 04:10:14;;;;;;;9.80;4.45;;;17.50;95.10;;;;;;4974158;28;20638;-79
2023/07/08 04:12:40;;;;;;;9.05;4.20;;;17.50;94.80;;;;;;4974229;28;20029;-79
2023/07/08 04:15:08;;;;;;;9.30;4.35;;;17.50;95.00;;;;;;4987377;23;20532;-86
2023/07/08 04:17:40;;;;;;;8.27;5.25;;;17.50;95.20;;;;;;4973432;28;20058;-85
2023/07/08 04:20:10;;;;;;;7.05;4.57;;;17.40;94.80;;;;;;4974821;28;20033;-85
2023/07/08 04:22:37;;;;;;;9.95;5.07;;;17.50;95.30;;;;;;4974997;28;20025;-85
2023/07/08 04:25:05;;;;;;;8.13;4.60;;;17.50;95.00;;;;;;4974043;28;20027;-85
2023/07/08 04:27:31;;;;;;;8.00;4.35;;;17.50;95.00;;;;;;4974056;28;20101;-85
2023/07/08 04:29:57;;;;;;;10.57;4.82;;;17.50;95.20;;;;;;4974520;28;20471;-85
2023/07/08 04:32:26;;;;;;;7.53;4.80;;;17.50;95.50;;;;;;4973474;28;20023;-85
2023/07/08 04:34:52;;;;;;;9.23;4.88;;;17.60;95.60;;;;;;4972179;28;20023;-85
2023/07/08 04:37:19;;;;;;;11.00;4.95;;;17.60;95.40;;;;;;4974099;28;20039;-85
2023/07/08 04:39:44;;;;;;;8.57;4.53;;;17.60;95.00;;;;;;4974126;28;20022;-85
2023/07/08 04:42:12;;;;;;;9.32;4.43;;;17.60;95.50;;;;;;4973851;28;20027;-85
2023/07/08 04:44:38;;;;;;;11.07;4.50;;;17.80;95.20;;;;;;4973678;28;20055;-85
2023/07/08 04:47:04;;;;;;;9.85;4.50;;;17.80;95.10;;;;;;4956134;28;20137;-85
2023/07/08 04:49:31;;;;;;;8.55;4.40;;;17.80;95.30;;;;;;4973648;28;20011;-86
2023/07/08 04:51:59;;;;;;;10.38;4.55;;;17.80;94.90;;;;;;4973660;28;20038;-85
2023/07/08 04:54:25;;;;;;;9.25;4.68;;;17.80;94.80;;;;;;4973816;28;20493;-85
2023/07/08 04:56:52;;;;;;;7.90;4.53;;;17.80;95.00;;;;;;4973705;28;20030;-84
2023/07/08 04:59:20;;;;;;;12.90;4.97;;;17.80;95.50;;;;;;4973207;28;20025;-85
2023/07/08 05:01:46;;;;;;;8.60;4.97;;;17.80;95.50;;;;;;4972771;28;20053;-85
2023/07/08 05:04:16;;;;;;;9.70;4.20;;;17.90;95.60;;;;;;4973749;28;20050;-85
2023/07/08 05:06:42;;;;;;;7.75;4.88;;;17.90;95.60;;;;;;4972576;28;20022;-85
2023/07/08 05:09:08;;;;;;;7.85;4.15;;;18.00;95.60;;;;;;4973332;28;20031;-85
2023/07/08 05:11:34;;;;;;;9.80;4.18;;;18.00;95.70;;;;;;4973106;28;20530;-85
2023/07/08 05:16:38;;;;;;;8.30;4.50;;;18.20;95.10;;;;;;4973454;28;20043;-79
2023/07/08 05:19:04;;;;;;;10.10;4.20;;;18.30;95.20;;;;;;4972955;28;20466;-79
2023/07/08 05:21:33;;;;;;;9.18;5.00;;;18.50;95.10;;;;;;4971033;28;20026;-80
2023/07/08 05:23:59;;;;;;;6.63;4.05;;;18.60;94.70;;;;;;4971902;28;20367;-79
2023/07/08 05:26:25;;;;;;;12.05;4.25;;;18.80;93.90;;;;;;4954570;28;20025;-79
2023/07/08 05:28:51;;;;;;;10.45;4.00;;;19.20;92.70;;;;;;4972958;28;20038;-79
2023/07/08 05:31:16;;;;;;;9.57;4.00;;;19.40;92.10;;;;;;4972847;28;20404;-79
2023/07/08 05:33:42;;;;;;;24.92;4.10;;;19.70;91.50;;;;;;4971953;28;20062;-79
2023/07/08 05:36:08;;;;;;;7.95;3.50;;;19.90;90.60;;;;;;4954850;28;20054;-79
2023/07/08 05:38:34;;;;;;;7.35;3.72;;;20.10;90.60;;;;;;4972582;28;20380;-79
2023/07/08 05:40:59;;;;;;;7.50;3.25;;;20.30;90.60;;;;;;4972559;28;20038;-79
2023/07/08 05:43:26;;;;;;;8.20;3.75;;;20.30;90.40;;;;;;4972046;28;20029;-79
2023/07/08 05:45:51;;;;;;;6.28;4.20;;;20.40;89.80;;;;;;4972347;28;20030;-79
2023/07/08 05:48:17;;;;;;;5.65;3.75;;;20.40;90.00;;;;;;4972382;28;20031;-80
2023/07/08 05:50:45;;;;;;;7.70;3.58;;;20.50;90.10;;;;;;4972478;28;20525;-79
2023/07/08 05:53:11;;;;;;;8.95;3.95;;;20.50;89.00;;;;;;4965842;28;20061;-79
2023/07/08 05:55:42;;;;;;;8.57;3.88;;;20.60;88.70;;;;;;4971703;28;20027;-79
2023/07/08 05:58:08;;;;;;;6.85;3.78;;;20.70;88.30;;;;;;4972391;28;20712;-79
2023/07/08 06:00:34;;;;;;;12.60;3.88;;;20.80;87.80;;;;;;4972335;28;20105;-79
2023/07/08 06:03:00;;;;;;;8.40;3.55;;;21.00;87.40;;;;;;4972898;28;20565;-80
2023/07/08 06:05:25;;;;;;;10.52;4.68;;;21.20;86.10;;;;;;4972124;28;20027;-79
2023/07/08 06:07:51;;;;;;;10.07;3.97;;;21.40;86.20;;;;;;4972008;28;20070;-79
2023/07/08 06:10:16;;;;;;;6.20;4.13;;;21.70;84.00;;;;;;4971936;28;20067;-79
2023/07/08 06:12:42;;;;;;;9.68;4.63;;;21.90;83.50;;;;;;4971909;28;20530;-79
2023/07/08 06:15:08;;;;;;;9.23;4.38;;;22.10;83.30;;;;;;4991214;23;20556;-85
2023/07/08 06:17:34;;;;;;;10.13;4.30;;;22.30;82.40;;;;;;4990022;28;20141;-84
2023/07/08 06:19:59;;;;;;;7.90;4.15;;;22.50;82.50;;;;;;4974028;28;20113;-85
2023/07/08 06:22:25;;;;;;;10.93;4.40;;;22.70;81.40;;;;;;4973824;28;20022;-85
2023/07/08 06:24:51;;;;;;;6.63;3.60;;;22.80;81.00;;;;;;4973801;28;20398;-84
2023/07/08 06:27:16;;;;;;;9.65;4.40;;;22.70;80.70;;;;;;4973518;28;20161;-83
2023/07/08 06:29:42;;;;;;;10.25;4.63;;;22.70;81.00;;;;;;4991919;28;20026;-84
2023/07/08 06:32:08;;;;;;;10.77;4.00;;;22.50;81.40;;;;;;4990831;28;20470;-85
2023/07/08 06:34:34;;;;;;;8.15;4.53;;;22.40;82.40;;;;;;4991107;28;20555;-84
2023/07/08 06:36:59;;;;;;;7.18;4.20;;;22.30;82.40;;;;;;4988515;28;20110;-85
2023/07/08 06:39:25;;;;;;;9.85;4.95;;;22.30;82.80;;;;;;4996403;28;20050;-84
2023/07/08 06:41:51;;;;;;;7.93;4.13;;;22.20;83.30;;;;;;4990451;28;20390;-85
2023/07/08 06:44:16;;;;;;;7.35;4.90;;;22.20;84.20;;;;;;4990973;28;20569;-85
2023/07/08 06:46:42;;;;;;;9.80;4.60;;;22.20;84.50;;;;;;4990318;28;20101;-85
2023/07/08 06:49:11;;;;;;;7.03;4.32;;;22.10;85.50;;;;;;4990458;28;20030;-85
2023/07/08 06:51:38;;;;;;;14.05;5.40;;;22.10;85.10;;;;;;4990824;28;20467;-85
2023/07/08 06:54:10;;;;;;;9.15;4.00;;;22.10;86.00;;;;;;4983642;28;20053;-85
2023/07/08 06:56:40;;;;;;;9.70;4.95;;;22.10;85.70;;;;;;4990214;28;20021;-86
2023/07/08 06:59:09;;;;;;;9.82;4.65;;;22.20;85.10;;;;;;4973097;28;20030;-85
2023/07/08 07:01:36;;;;;;;10.75;5.85;;;22.20;85.70;;;;;;4990962;28;20049;-85
2023/07/08 07:04:03;;;;;;;10.15;5.00;;;22.30;86.50;;;;;;4991163;28;20069;-85
2023/07/08 07:06:29;;;;;;;5.65;4.25;;;22.30;84.10;;;;;;4990800;28;20101;-84
2023/07/08 07:08:54;;;;;;;12.65;4.65;;;22.40;84.30;;;;;;4991218;28;20117;-84
2023/07/08 07:11:20;;;;;;;10.20;4.63;;;22.40;83.40;;;;;;4991447;28;20022;-85
2023/07/08 07:13:46;;;;;;;9.90;4.13;;;22.40;84.80;;;;;;4990820;28;20545;-86
2023/07/08 07:16:12;;;;;;;9.13;4.68;;;22.60;84.60;;;;;;4979957;23;20043;-80
2023/07/08 07:18:38;;;;;;;9.43;4.65;;;22.80;82.70;;;;;;4933044;28;20024;-77
2023/07/08 07:21:04;;;;;;;7.82;4.50;;;22.80;82.50;;;;;;4933165;28;20032;-80
2023/07/08 07:23:29;;;;;;;15.25;5.28;;;22.80;84.00;;;;;;4937488;28;20027;-80
2023/07/08 07:25:55;;;;;;;10.07;5.20;;;22.80;84.50;;;;;;4932946;28;20043;-77
2023/07/08 07:28:21;;;;;;;12.43;4.70;;;22.80;83.10;;;;;;4932930;28;20035;-78
2023/07/08 07:30:47;;;;;;;11.43;5.10;;;22.70;83.80;;;;;;4935046;28;20472;-77
2023/07/08 07:33:13;;;;;;;12.75;4.85;;;22.60;84.40;;;;;;4937579;28;20024;-79
2023/07/08 07:35:43;;;;;;;8.25;4.60;;;22.50;85.50;;;;;;4937385;28;20480;-79
2023/07/08 07:38:09;;;;;;;15.23;5.78;;;22.50;86.40;;;;;;4946006;28;20034;-80
2023/07/08 07:40:35;;;;;;;10.07;4.97;;;22.40;87.00;;;;;;4935323;28;20020;-80
2023/07/08 07:43:01;;;;;;;14.88;5.05;;;22.50;86.00;;;;;;4937441;28;20020;-80
2023/07/08 07:45:27;;;;;;;10.40;5.30;;;22.50;85.00;;;;;;4937365;28;20036;-80
2023/07/08 07:47:52;;;;;;;12.88;4.80;;;22.60;84.80;;;;;;4937155;28;20679;-80
2023/07/08 07:50:18;;;;;;;9.02;5.18;;;22.70;85.00;;;;;;4936885;28;20031;-80
2023/07/08 07:52:44;;;;;;;10.68;5.45;;;22.90;85.20;;;;;;4937416;28;20024;-80
2023/07/08 07:55:09;;;;;;;8.77;5.07;;;23.20;83.80;;;;;;4936897;28;20095;-80
2023/07/08 07:57:35;;;;;;;11.60;5.13;;;23.30;82.00;;;;;;4937064;28;20016;-80
2023/07/08 08:00:00;;;;;;;8.57;5.10;;;23.40;82.30;;;;;;4936540;28;20119;-80
2023/07/08 08:02:26;;;;;;;12.95;5.78;;;23.60;82.70;;;;;;4936571;28;20063;-79
2023/07/08 08:04:52;;;;;;;8.48;4.60;;;23.70;81.70;;;;;;4936112;28;20058;-78
2023/07/08 08:07:17;;;;;;;11.57;4.65;;;23.80;82.80;;;;;;4936874;28;20464;-78
2023/07/08 08:09:43;;;;;;;9.95;4.68;;;24.00;80.60;;;;;;4940746;28;20031;-81
2023/07/08 08:12:11;;;;;;;13.88;4.90;;;24.10;80.10;;;;;;4936683;28;20046;-79
2023/07/08 08:14:37;;;;;;;10.60;5.90;;;24.10;79.90;;;;;;4936490;28;20054;-80
2023/07/08 08:17:04;;;;;;;10.50;5.10;;;24.30;78.10;;;;;;4936619;28;20028;-78
2023/07/08 08:19:29;;;;;;;11.23;4.95;;;24.50;80.50;;;;;;4935898;28;20016;-77
2023/07/08 08:21:55;;;;;;;13.02;5.40;;;24.80;76.80;;;;;;4936487;28;20157;-77
2023/07/08 08:24:21;;;;;;;9.18;4.40;;;24.90;77.00;;;;;;4936623;28;20055;-79
2023/07/08 08:26:47;;;;;;;14.85;4.80;;;25.10;75.40;;;;;;4936091;28;20046;-78
2023/07/08 08:29:12;;;;;;;8.90;5.35;;;25.40;73.50;;;;;;4936628;28;20030;-78
2023/07/08 08:31:38;;;;;;;10.30;4.53;;;25.50;73.80;;;;;;4936205;28;20027;-80
2023/07/08 08:34:04;;;;;;;9.57;5.10;;;25.80;71.30;;;;;;4936114;28;20031;-77
2023/07/08 08:36:30;;;;;;;14.52;5.60;;;26.00;73.70;;;;;;4936255;28;20411;-77
2023/07/08 08:38:55;;;;;;;9.68;4.20;;;26.10;69.80;;;;;;4940295;28;20078;-77
2023/07/08 08:41:30;;;;;;;11.05;4.18;;;26.30;67.60;;;;;;4935825;28;20436;-77
2023/07/08 08:43:57;;;;;;;10.13;4.78;;;26.50;67.30;;;;;;4935614;28;20114;-78
2023/07/08 08:46:43;;;;;;;10.82;5.25;;;26.40;68.50;;;;;;4935395;28;20028;-80
2023/07/08 08:49:21;;;;;;;15.23;4.82;;;26.30;67.00;;;;;;4936095;28;21454;-77
2023/07/08 08:51:48;;;;;;;11.27;5.20;;;26.40;67.00;;;;;;4936162;28;20051;-78
2023/07/08 08:54:13;;;;;;;11.57;4.15;;;26.70;68.90;;;;;;4935601;28;20115;-80
2023/07/08 08:57:18;;;;;;;9.70;4.30;;;27.00;65.80;;;;;;4935654;28;20496;-78
2023/07/08 08:59:52;;;;;;;7.35;4.60;;;27.40;66.20;;;;;;4932774;28;20496;-78
2023/07/08 09:02:23;;;;;;;9.05;4.53;;;27.50;64.30;;;;;;4934832;28;20034;-78
2023/07/08 09:04:49;;;;;;;14.55;4.32;;;27.40;63.40;;;;;;4934906;28;20087;-78
2023/07/08 09:07:19;;;;;;;11.02;4.43;;;27.50;63.80;;;;;;4934964;28;20114;-77
2023/07/08 09:10:07;;;;;;;8.77;4.03;;;27.50;63.50;;;;;;4939111;28;20032;-78
2023/07/08 09:12:34;;;;;;;9.25;4.25;;;27.40;63.10;;;;;;4933728;28;20023;-79
2023/07/08 09:14:59;;;;;;;9.52;4.85;;;27.40;65.30;;;;;;4954024;23;20109;-82
2023/07/08 09:17:34;;;;;;;8.85;4.35;;;27.40;63.70;;;;;;4935285;28;20023;-85
2023/07/08 09:20:18;;;;;;;6.88;4.30;;;27.50;64.90;;;;;;4933535;28;20102;-84
2023/07/08 09:22:57;;;;;;;11.93;4.57;;;27.50;64.20;;;;;;4933961;28;20429;-84
2023/07/08 09:25:33;;;;;;;9.15;4.43;;;27.50;63.90;;;;;;4934321;28;20051;-84
2023/07/08 09:27:59;;;;;;;10.63;3.90;;;27.60;63.50;;;;;;4934948;28;20035;-83
2023/07/08 09:30:25;;;;;;;6.50;3.40;;;27.70;63.50;;;;;;4934652;28;20536;-83
2023/07/08 09:32:51;;;;;;;7.25;4.05;;;28.00;63.80;;;;;;4933702;28;20023;-84
2023/07/08 09:35:21;;;;;;;8.55;4.35;;;28.30;63.60;;;;;;4934843;28;20429;-84
2023/07/08 09:37:48;;;;;;;7.10;3.40;;;28.60;63.20;;;;;;4935047;28;20135;-83
2023/07/08 09:40:22;;;;;;;8.52;3.90;;;28.80;57.40;;;;;;4935057;28;20027;-84
2023/07/08 09:42:54;;;;;;;9.13;3.55;;;29.00;58.80;;;;;;4943326;28;20067;-84
2023/07/08 09:45:23;;;;;;;6.00;3.03;;;28.90;60.00;;;;;;4935236;28;20030;-84
2023/07/08 09:47:53;;;;;;;4.88;3.13;;;28.80;56.60;;;;;;4941999;28;20476;-85
2023/07/08 09:50:27;;;;;;;7.15;3.35;;;28.80;61.70;;;;;;4941787;28;20043;-84
2023/07/08 09:52:57;;;;;;;7.82;3.10;;;28.90;57.40;;;;;;4935142;28;20071;-85
2023/07/08 09:55:23;;;;;;;6.82;3.75;;;28.90;56.80;;;;;;4940862;28;20109;-85
2023/07/08 09:57:52;;;;;;;8.20;3.10;;;29.20;59.30;;;;;;4934941;28;20107;-83
2023/07/08 10:00:27;;;;;;;6.82;2.90;;;29.50;59.20;;;;;;4933213;28;20031;-84
2023/07/08 10:02:58;;;;;;;5.90;3.40;;;30.00;55.30;;;;;;4934009;28;20027;-88
2023/07/08 10:05:35;;;;;;;;;;;29.90;56.50;;;;;;4935740;28;20059;-88
2023/07/08 10:08:05;;;;;;;10.52;2.70;;;29.90;52.60;;;;;;4941894;28;19918;-87
2023/07/08 10:10:36;;;;;;;7.38;3.28;;;29.60;56.70;;;;;;4933899;28;20024;-88
2023/07/08 10:13:22;;;;;;;5.20;2.95;;;29.40;55.90;;;;;;4941824;28;20031;-88
2023/07/08 10:16:17;;;;;;;4.75;3.33;;;29.30;56.20;;;;;;4980133;23;20120;-81
2023/07/08 10:18:43;;;;;;;7.80;3.28;;;29.30;57.50;;;;;;4991039;28;20121;-80
2023/07/08 10:21:18;;;;;;;7.28;2.90;;;29.20;58.30;;;;;;4990945;28;20018;-80
2023/07/08 10:24:08;;;;;;;10.48;3.00;;;29.00;57.50;;;;;;4990478;28;20579;-80
2023/07/08 10:26:34;;;;;;;5.20;2.80;;;28.60;58.70;;;;;;4989623;28;20479;-81
2023/07/08 10:29:21;;;;;;;6.80;3.53;;;28.50;59.10;;;;;;4990439;28;20026;-81
2023/07/08 10:32:14;;;;;;;6.55;3.20;;;28.50;58.60;;;;;;4990242;28;20514;-80
2023/07/08 10:34:39;;;;;;;3.45;2.55;;;28.70;59.60;;;;;;4990516;28;20426;-80
2023/07/08 10:37:05;;;;;;;5.68;2.75;;;29.20;55.10;;;;;;4990274;28;20019;-81
2023/07/08 10:39:59;;;;;;;6.00;2.30;;;30.00;54.50;;;;;;4989118;28;20022;-80
2023/07/08 10:42:46;;;;;;;3.63;2.35;;;31.90;51.10;;;;;;4981396;28;20118;-80
2023/07/08 10:45:35;;;;;;;3.55;1.88;;;33.70;45.10;;;;;;4985988;28;20035;-79
2023/07/08 10:48:23;;;;;;;3.45;2.05;;;34.20;42.20;;;;;;4984952;28;20100;-81
2023/07/08 10:51:38;;;;;;;4.90;2.22;;;33.50;40.60;;;;;;4996637;28;20034;-80
2023/07/08 10:54:12;;;;;;;3.40;2.20;;;33.70;42.20;;;;;;4967015;28;20053;-81
2023/07/08 10:56:53;;;;;;;2.70;1.75;;;33.20;43.70;;;;;;4995517;28;20015;-82
2023/07/08 10:59:44;;;;;;;4.35;2.05;;;33.70;42.70;;;;;;4990804;28;20528;-81
2023/07/08 11:02:25;;;;;;;4.50;1.88;;;33.80;41.60;;;;;;4984220;28;20034;-81
2023/07/08 11:05:01;;;;;;;4.40;1.73;;;33.70;40.90;;;;;;4994468;28;20494;-81
2023/07/08 11:07:29;;;;;;;3.88;2.40;;;32.80;43.80;;;;;;4994496;28;20471;-80
2023/07/08 11:10:00;;;;;;;4.47;2.05;;;31.40;44.80;;;;;;4994371;28;20406;-81
2023/07/08 11:12:30;;;;;;;;;;;30.60;49.30;;;;;;4995053;28;20026;-82
2023/07/08 11:15:03;;;;;;;3.88;2.20;;;29.80;48.60;;;;;;4997862;22;19921;-83
2023/07/08 11:17:49;;;;;;;5.35;2.58;;;29.40;50.30;;;;;;4956699;28;20023;-82
2023/07/08 11:20:20;;;;;;;6.90;2.50;;;28.60;50.10;;;;;;4975099;28;20121;-82
2023/07/08 11:23:06;;;;;;;3.72;2.38;;;28.10;53.00;;;;;;4974514;28;20029;-82
2023/07/08 11:25:33;;;;;;;8.30;2.95;;;27.50;54.80;;;;;;4974258;28;20578;-82
2023/07/08 11:28:04;;;;;;;3.08;2.20;;;27.20;56.60;;;;;;4974693;28;20101;-82
2023/07/08 11:30:30;;;;;;;;;;;26.90;57.20;;;;;;4975522;28;20019;-82
2023/07/08 11:33:04;;;;;;;4.10;2.50;;;26.60;58.50;;;;;;4957339;28;19913;-83
2023/07/08 11:35:52;;;;;;;7.15;2.40;;;26.50;58.50;;;;;;4974502;28;20042;-82
2023/07/08 11:38:20;;;;;;;16.17;3.03;;;26.20;58.90;;;;;;4974678;28;20027;-83
2023/07/08 11:41:13;;;;;;;7.30;2.58;;;26.00;66.60;;;;;;4957023;28;20027;-86
2023/07/08 11:43:47;;;;;;;6.05;2.53;;;25.40;68.90;;;;;;4956985;28;20126;-83
2023/07/08 11:46:18;;;;;;;4.80;2.33;;;24.80;74.20;;;;;;4956437;28;20034;-84
2023/07/08 11:48:48;;;;;;;3.20;2.42;;;24.40;74.50;;;;;;4957380;28;20031;-83
2023/07/08 11:51:19;;;;;;;3.95;2.38;;;24.10;79.00;;;;;;4955622;28;20548;-83
2023/07/08 11:54:12;;;;;;;3.80;2.22;;;23.60;81.20;;;;;;4974928;28;20440;-83
2023/07/08 11:57:17;;;;;;;9.20;3.53;;;23.30;89.30;;;;;;4974150;28;20133;-86
2023/07/08 11:59:44;;;;;;;6.38;3.03;;;23.10;91.50;;;;;;4931583;28;20034;-87
2023/07/08 12:02:16;;;;;;;10.30;3.90;;;23.00;92.80;;;;;;4974629;28;20026;-87
2023/07/08 12:04:54;;;;;;;13.57;2.85;;;22.70;93.20;;;;;;4973068;28;20019;-86
2023/07/08 12:07:28;;;;;;;6.05;3.00;;;22.50;92.00;;;;;;4956337;28;20062;-85
2023/07/08 12:10:10;;;;;;;6.90;2.92;;;22.20;94.20;;;;;;4956294;28;20042;-86
2023/07/08 12:12:40;;;;;;;6.38;3.33;;;22.00;95.50;;;;;;4973151;28;20029;-85
2023/07/08 12:15:12;;;;;;;6.63;3.22;;;21.90;95.90;;;;;;4977755;23;20073;-83
2023/07/08 12:17:40;;;;;;;9.35;3.13;;;21.90;95.90;;;;;;4991177;28;20348;-82
2023/07/08 12:20:36;;;;;;;11.38;2.70;;;21.60;96.00;;;;;;4994789;28;20463;-87
2023/07/08 12:23:17;;;;;;;8.20;3.40;;;21.50;96.80;;;;;;4998918;28;20113;-83
2023/07/08 12:25:43;;;;;;;10.63;3.67;;;21.50;96.60;;;;;;4972719;28;20529;-82
2023/07/08 12:28:09;;;;;;;7.70;3.70;;;21.60;97.10;;;;;;4972612;28;20331;-83
2023/07/08 12:30:35;;;;;;;10.60;4.25;;;21.70;97.10;;;;;;4973254;28;20045;-82
2023/07/08 12:33:02;;;;;;;8.20;3.75;;;21.70;98.10;;;;;;4975892;28;20491;-82
2023/07/08 12:35:31;;;;;;;8.38;3.60;;;22.00;98.60;;;;;;4973388;28;20035;-80
2023/07/08 12:38:32;;;;;;;7.95;3.80;;;22.30;97.30;;;;;;4973196;28;20027;-82
2023/07/08 12:41:05;;;;;;;7.13;3.22;;;22.60;96.60;;;;;;4971861;28;20031;-82
2023/07/08 12:43:30;;;;;;;14.57;3.75;;;23.00;97.70;;;;;;4972116;28;20027;-80
2023/07/08 12:45:56;;;;;;;4.78;3.13;;;23.90;97.50;;;;;;4973095;28;20015;-79
2023/07/08 12:48:22;;;;;;;8.50;2.67;;;25.50;94.80;;;;;;4977012;28;20038;-79
2023/07/08 12:50:49;;;;;;;8.10;2.80;;;27.00;94.60;;;;;;4976290;28;20028;-81
2023/07/08 12:53:15;;;;;;;3.50;2.40;;;27.90;78.70;;;;;;4973060;28;20045;-80
2023/07/08 12:55:43;;;;;;;5.80;2.50;;;28.20;75.40;;;;;;4977459;28;20471;-81
2023/07/08 12:58:31;;;;;;;5.95;3.25;;;28.70;76.70;;;;;;4975431;28;20027;-82
2023/07/08 13:01:00;;;;;;;6.03;2.90;;;29.60;69.40;;;;;;4985647;28;20065;-82